createdAt,value
2022-08-17T00:01:08.168Z,15.40
2022-08-17T00:08:36.927Z,17.05
2022-08-17T00:12:43.053Z,17.63
2022-08-17T00:16:57.093Z,17.83
2022-08-17T00:20:36.618Z,18.67
2022-08-17T00:24:18.742Z,18.15
2022-08-17T00:28:00.665Z,18.13
2022-08-17T00:33:13.761Z,17.58
2022-08-17T00:36:06.249Z,18.45
2022-08-17T00:39:50.186Z,19.37
2022-08-17T00:43:52.498Z,18.83
2022-08-17T00:47:34.295Z,19.42
2022-08-17T00:51:30.117Z,19.30
2022-08-17T00:55:11.943Z,18.50
2022-08-17T00:59:14.759Z,19.27
2022-08-17T01:02:59.523Z,19.02
2022-08-17T01:06:42.026Z,19.52
2022-08-17T01:10:58.443Z,19.77
2022-08-17T01:14:43.218Z,19.63
2022-08-17T01:18:26.422Z,17.92
2022-08-17T01:22:11.191Z,17.10
2022-08-17T01:25:54.893Z,18.45
2022-08-17T01:30:00.925Z,18.45
2022-08-17T01:33:42.741Z,17.55
2022-08-17T01:37:35.547Z,19.80
2022-08-17T01:41:38.318Z,19.60
2022-08-17T01:45:33.088Z,19.45
2022-08-17T01:49:17.920Z,19.35
2022-08-17T01:53:19.860Z,18.95
2022-08-17T01:57:02.176Z,19.85
2022-08-17T02:00:46.600Z,19.02
2022-08-17T02:04:41.596Z,20.00
2022-08-17T02:08:37.281Z,19.48
2022-08-17T02:12:38.187Z,21.83
2022-08-17T02:16:21.363Z,19.58
2022-08-17T02:20:04.723Z,20.95
2022-08-17T02:23:47.513Z,21.05
2022-08-17T02:27:29.513Z,19.50
2022-08-17T02:31:12.542Z,20.33
2022-08-17T02:34:54.320Z,18.95
2022-08-17T02:38:56.754Z,21.90
2022-08-17T02:42:40.870Z,20.50
2022-08-17T02:46:22.690Z,20.67
2022-08-17T02:50:26.610Z,20.95
2022-08-17T02:58:10.680Z,20.42
2022-08-17T03:01:54.749Z,21.38
2022-08-17T03:05:37.255Z,21.17
2022-08-17T03:09:37.891Z,18.73
2022-08-17T03:13:20.117Z,21.52
2022-08-17T03:17:01.915Z,22.63
2022-08-17T03:21:41.510Z,23.77
2022-08-17T03:25:25.687Z,21.40
2022-08-17T03:29:08.740Z,22.02
2022-08-17T03:32:51.735Z,21.92
2022-08-17T03:36:36.133Z,21.65
2022-08-17T03:40:18.447Z,22.75
2022-08-17T03:44:20.183Z,21.42
2022-08-17T03:48:20.781Z,23.70
2022-08-17T03:52:20.970Z,23.58
2022-08-17T03:56:22.006Z,24.27
2022-08-17T04:00:22.910Z,20.80
2022-08-17T04:04:05.095Z,22.60
2022-08-17T04:07:46.917Z,22.73
2022-08-17T04:11:30.002Z,21.63
2022-08-17T04:15:12.693Z,24.08
2022-08-17T04:18:54.712Z,23.30
2022-08-17T04:22:36.623Z,22.73
2022-08-17T04:26:52.957Z,24.65
2022-08-17T04:30:43.209Z,25.50
2022-08-17T04:34:25.132Z,23.08
2022-08-17T04:38:07.771Z,24.42
2022-08-17T04:42:06.845Z,25.37
2022-08-17T04:45:55.067Z,26.52
2022-08-17T04:50:01.670Z,25.02
2022-08-17T04:53:45.223Z,26.48
2022-08-17T05:01:13.003Z,25.10
2022-08-17T05:04:54.856Z,24.92
2022-08-17T05:09:17.510Z,26.02
2022-08-17T05:13:00.367Z,27.42
2022-08-17T05:16:42.158Z,28.92
2022-08-17T05:20:42.852Z,26.73
2022-08-17T05:24:38.609Z,26.80
2022-08-17T05:28:27.610Z,26.38
2022-08-17T05:32:47.896Z,24.77
2022-08-17T05:36:37.456Z,26.05
2022-08-17T05:40:16.983Z,27.42
2022-08-17T05:43:58.863Z,25.70
2022-08-17T05:47:40.811Z,26.42
2022-08-17T05:56:43.378Z,27.83
2022-08-17T06:01:09.429Z,27.08
2022-08-17T06:04:59.633Z,28.20
2022-08-17T06:08:44.445Z,27.55
2022-08-17T06:12:34.485Z,26.65
2022-08-17T06:16:32.842Z,26.95
2022-08-17T06:20:16.561Z,27.27
2022-08-17T06:24:03.199Z,26.73
2022-08-17T06:27:53.554Z,26.90
2022-08-17T06:32:15.026Z,25.50
2022-08-17T06:36:18.035Z,24.90
2022-08-17T06:40:37.463Z,29.90
2022-08-17T06:45:03.629Z,25.13
2022-08-17T06:49:26.232Z,24.23
2022-08-17T06:53:34.347Z,25.25
2022-08-17T06:57:20.082Z,23.80
2022-08-17T07:01:18.251Z,23.52
2022-08-17T07:05:01.686Z,23.02
2022-08-17T07:09:02.433Z,23.45
2022-08-17T07:12:44.327Z,23.83
2022-08-17T07:16:27.452Z,23.25
2022-08-17T07:20:31.253Z,23.98
2022-08-17T07:28:12.300Z,22.75
2022-08-17T07:31:56.362Z,58.78
2022-08-17T07:35:41.429Z,47.65
2022-08-17T07:40:16.347Z,27.42
2022-08-17T07:43:58.763Z,31.13
2022-08-17T07:47:58.945Z,21.75
2022-08-17T07:51:45.811Z,18.17
2022-08-17T07:55:33.002Z,16.42
2022-08-17T07:59:33.364Z,17.67
2022-08-17T08:03:28.497Z,16.98
2022-08-17T08:07:25.290Z,16.55
2022-08-17T08:11:17.287Z,16.15
2022-08-17T08:15:10.180Z,15.10
2022-08-17T08:18:58.474Z,17.77
2022-08-17T08:22:52.586Z,13.80
2022-08-17T08:27:08.025Z,13.18
2022-08-17T08:30:52.793Z,26.13
2022-08-17T08:35:01.658Z,14.02
2022-08-17T08:38:54.921Z,14.80
2022-08-17T08:42:56.711Z,17.05
2022-08-17T08:46:53.710Z,21.77
2022-08-17T08:50:43.072Z,16.27
2022-08-17T08:54:58.148Z,46.13
2022-08-17T08:59:14.020Z,16.20
2022-08-17T09:03:19.156Z,17.40
2022-08-17T09:07:38.559Z,16.02
2022-08-17T09:12:01.885Z,16.27
2022-08-17T09:15:50.234Z,24.60
2022-08-17T09:19:44.533Z,19.25
2022-08-17T09:23:33.178Z,18.98
2022-08-17T09:27:18.552Z,20.95
2022-08-17T09:31:21.731Z,19.40
2022-08-17T09:35:33.798Z,18.05
2022-08-17T09:39:42.324Z,15.45
2022-08-17T09:43:39.832Z,17.05
2022-08-17T09:47:56.287Z,20.42
2022-08-17T09:51:45.751Z,17.92
2022-08-17T09:55:52.985Z,17.30
2022-08-17T09:59:44.836Z,14.82
2022-08-17T10:03:49.147Z,16.15
2022-08-17T10:07:41.752Z,17.08
2022-08-17T10:11:50.749Z,18.83
2022-08-17T10:16:38.343Z,18.40
2022-08-17T10:21:16.885Z,18.42
2022-08-17T10:25:22.846Z,16.40
2022-08-17T10:29:17.078Z,15.85
2022-08-17T10:33:01.312Z,16.17
2022-08-17T10:36:46.278Z,13.95
2022-08-17T10:41:06.427Z,15.85
2022-08-17T10:44:56.282Z,13.25
2022-08-17T10:48:40.415Z,15.73
2022-08-17T10:52:29.883Z,13.15
2022-08-17T10:56:15.481Z,12.63
2022-08-17T11:00:00.486Z,14.68
2022-08-17T11:03:55.058Z,15.43
2022-08-17T11:07:48.899Z,14.30
2022-08-17T11:11:53.118Z,14.82
2022-08-17T11:15:54.978Z,14.07
2022-08-17T11:20:06.476Z,11.60
2022-08-17T11:24:03.340Z,12.73
2022-08-17T11:27:47.126Z,13.93
2022-08-17T11:31:41.141Z,13.10
2022-08-17T11:35:23.117Z,14.65
2022-08-17T11:39:17.131Z,10.77
2022-08-17T11:43:13.338Z,12.90
2022-08-17T11:47:38.778Z,13.68
2022-08-17T11:52:02.347Z,13.20
2022-08-17T11:55:53.210Z,11.70
2022-08-17T12:00:14.242Z,11.82
2022-08-17T12:04:25.440Z,10.88
2022-08-17T12:08:17.759Z,10.75
2022-08-17T12:12:12.339Z,11.05
2022-08-17T12:15:56.427Z,11.05
2022-08-17T12:20:15.550Z,9.75
2022-08-17T12:24:31.231Z,10.52
2022-08-17T12:28:27.073Z,13.82
2022-08-17T12:32:14.424Z,9.70
2022-08-17T12:36:03.175Z,10.00
2022-08-17T12:40:00.023Z,10.90
2022-08-17T12:43:41.863Z,11.55
2022-08-17T12:47:23.767Z,14.35
2022-08-17T12:51:07.842Z,9.40
2022-08-17T12:54:52.622Z,13.07
2022-08-17T12:58:38.110Z,10.70
2022-08-17T13:02:53.438Z,10.82
2022-08-17T13:06:35.793Z,8.05
2022-08-17T13:10:56.535Z,10.33
2022-08-17T13:14:38.327Z,8.82
2022-08-17T13:18:39.057Z,7.47
2022-08-17T13:22:23.448Z,7.25
2022-08-17T13:26:14.614Z,7.13
2022-08-17T13:30:05.678Z,9.52
2022-08-17T13:33:47.527Z,8.93
2022-08-17T13:37:34.240Z,7.30
2022-08-17T13:41:35.163Z,7.78
2022-08-17T13:45:36.280Z,9.20
2022-08-17T13:49:50.337Z,5.88
2022-08-17T13:58:06.591Z,6.75
2022-08-17T14:01:57.727Z,5.82
2022-08-17T14:05:45.054Z,9.02
2022-08-17T14:09:37.569Z,5.90
2022-08-17T14:13:19.554Z,6.35
2022-08-17T14:17:01.509Z,6.90
2022-08-17T14:20:46.729Z,3.25
2022-08-17T14:24:32.874Z,4.03
2022-08-17T14:28:20.744Z,3.35
2022-08-17T14:32:09.479Z,5.70
2022-08-17T14:35:53.533Z,5.30
2022-08-17T14:39:49.022Z,7.32
2022-08-17T14:43:55.192Z,8.07
2022-08-17T14:48:12.662Z,6.65
2022-08-17T14:51:54.554Z,3.35
2022-08-17T14:55:39.862Z,3.75
2022-08-17T14:59:23.936Z,3.00
2022-08-17T15:03:05.810Z,3.45
2022-08-17T15:06:48.490Z,3.93
2022-08-17T15:14:12.140Z,3.22
2022-08-17T15:17:53.927Z,5.70
2022-08-17T15:21:38.860Z,4.97
2022-08-17T15:25:22.175Z,4.00
2022-08-17T15:29:05.383Z,4.90
2022-08-17T15:32:54.512Z,2.70
2022-08-17T15:36:37.521Z,5.25
2022-08-17T15:40:22.640Z,4.75
2022-08-17T15:44:04.891Z,5.88
2022-08-17T15:47:49.766Z,4.32
2022-08-17T15:52:27.755Z,2.33
2022-08-17T15:56:09.731Z,2.97
2022-08-17T16:00:12.556Z,3.53
2022-08-17T16:04:04.612Z,3.58
2022-08-17T16:07:49.416Z,3.88
2022-08-17T16:11:52.174Z,3.38
2022-08-17T16:15:38.101Z,5.50
2022-08-17T16:19:39.066Z,3.65
2022-08-17T16:23:20.839Z,3.97
2022-08-17T16:27:02.857Z,4.53
2022-08-17T16:30:55.739Z,3.65
2022-08-17T16:34:37.603Z,3.80
2022-08-17T16:38:19.366Z,5.47
2022-08-17T16:42:02.772Z,4.13
2022-08-17T16:45:48.655Z,5.22
2022-08-17T16:49:37.009Z,3.35
2022-08-17T16:53:21.966Z,6.30
2022-08-17T16:57:05.322Z,4.22
2022-08-17T17:00:48.816Z,3.65
2022-08-17T17:04:30.779Z,5.38
2022-08-17T17:08:25.624Z,4.97
2022-08-17T17:12:12.232Z,4.03
2022-08-17T17:16:26.445Z,4.53
2022-08-17T17:20:17.694Z,6.13
2022-08-17T17:24:01.686Z,5.38
2022-08-17T17:28:02.603Z,4.53
2022-08-17T17:31:57.856Z,3.60
2022-08-17T17:35:57.561Z,4.18
2022-08-17T17:40:05.781Z,6.25
2022-08-17T17:43:50.046Z,4.68
2022-08-17T17:47:31.953Z,4.30
2022-08-17T17:52:06.700Z,5.82
2022-08-17T17:56:39.196Z,8.80
2022-08-17T18:00:21.872Z,2.95
2022-08-17T18:04:21.494Z,4.13
2022-08-17T18:08:36.678Z,3.80
2022-08-17T18:12:28.116Z,4.40
2022-08-17T18:16:12.431Z,4.85
2022-08-17T18:19:56.765Z,3.67
2022-08-17T18:23:43.153Z,3.80
2022-08-17T18:27:24.903Z,4.30
2022-08-17T18:31:13.283Z,5.40
2022-08-17T18:34:57.550Z,4.03
2022-08-17T18:39:36.009Z,3.00
2022-08-17T18:43:53.676Z,3.15
2022-08-17T18:47:35.791Z,3.15
2022-08-17T18:51:40.307Z,7.28
2022-08-17T18:55:28.431Z,4.07
2022-08-17T18:59:39.765Z,3.15
2022-08-17T19:03:25.755Z,5.40
2022-08-17T19:07:11.817Z,4.25
2022-08-17T19:10:58.827Z,3.33
2022-08-17T19:14:40.606Z,3.17
2022-08-17T19:19:18.789Z,4.57
2022-08-17T19:23:22.984Z,4.72
2022-08-17T19:27:15.756Z,5.57
2022-08-17T19:31:04.143Z,4.30
2022-08-17T19:34:45.907Z,5.47
2022-08-17T19:38:51.366Z,3.88
2022-08-17T19:42:47.553Z,3.42
2022-08-17T19:46:50.575Z,3.95
2022-08-17T19:51:15.832Z,4.55
2022-08-17T19:55:05.632Z,5.35
2022-08-17T19:58:58.376Z,6.65
2022-08-17T20:02:45.954Z,7.07
2022-08-17T20:06:27.919Z,4.80
2022-08-17T20:10:26.896Z,5.15
2022-08-17T20:14:14.980Z,5.55
2022-08-17T20:18:01.382Z,4.90
2022-08-17T20:22:51.758Z,6.53
2022-08-17T20:26:58.114Z,5.00
2022-08-17T20:31:30.957Z,2.88
2022-08-17T20:35:31.799Z,4.30
2022-08-17T20:39:57.274Z,3.78
2022-08-17T20:43:39.158Z,4.15
2022-08-17T20:47:27.131Z,4.28
2022-08-17T20:51:32.460Z,4.65
2022-08-17T20:55:36.450Z,5.60
2022-08-17T20:59:42.640Z,7.32
2022-08-17T21:03:47.599Z,7.28
2022-08-17T21:07:43.188Z,4.85
2022-08-17T21:11:58.263Z,5.07
2022-08-17T21:15:55.343Z,5.03
2022-08-17T21:20:13.815Z,5.90
2022-08-17T21:24:18.184Z,5.40
2022-08-17T21:28:21.816Z,4.78
2022-08-17T21:32:17.141Z,4.57
2022-08-17T21:36:10.101Z,4.22
2022-08-17T21:40:13.009Z,8.15
2022-08-17T21:44:05.352Z,6.97
2022-08-17T21:47:52.104Z,6.55
2022-08-17T21:51:55.169Z,4.00
2022-08-17T21:55:37.016Z,6.72
2022-08-17T21:59:26.089Z,6.57
2022-08-17T22:03:08.310Z,6.60
2022-08-17T22:06:56.458Z,5.18
2022-08-17T22:10:43.669Z,6.18
2022-08-17T22:14:53.190Z,6.88
2022-08-17T22:18:36.098Z,6.82
2022-08-17T22:22:26.420Z,7.40
2022-08-17T22:26:12.528Z,6.35
2022-08-17T22:29:58.791Z,6.82
2022-08-17T22:33:43.484Z,7.30
2022-08-17T22:37:28.453Z,7.43
2022-08-17T22:41:50.476Z,3.92
2022-08-17T22:45:33.775Z,3.88
2022-08-17T22:50:05.127Z,6.70
2022-08-17T22:54:21.610Z,7.50
2022-08-17T22:58:31.220Z,5.10
2022-08-17T23:02:23.734Z,7.25
2022-08-17T23:06:10.488Z,6.53
2022-08-17T23:09:52.958Z,5.50
2022-08-17T23:13:36.457Z,4.15
2022-08-17T23:21:01.233Z,5.72
2022-08-17T23:24:50.532Z,6.28
2022-08-17T23:28:37.457Z,5.10
2022-08-17T23:32:19.266Z,6.07
2022-08-17T23:36:01.228Z,8.38
2022-08-17T23:40:03.543Z,6.82
2022-08-17T23:43:46.582Z,8.95
2022-08-17T23:47:28.629Z,8.95
2022-08-17T23:51:50.485Z,6.30
2022-08-17T23:55:34.649Z,8.07
